PUUANAHULU HI US current weather conditions

sailwx.info

Wind from 124 at 5 knots gusting 7

Air temperature 17.8° C
Dewpoint 14.1° C

Last reported at 2016-Sep-30 10:37 UTC.
Time now 2016-Sep-30 11:47 UTC

Location: N 19°50' W 155°46'.
View on Google Maps.

See reports from other nearby stations

  
Tides and Currents Weather Stations Pressure Air Temp Water Temp Dewpoint Dewpoint Depression Visibility Wind Speed Wind Dir Waves Ship Positions
date/time (UTC)wind fromknots sea level pressurealtimeterstation pressurevisibilityair tempwater tempwave heightnotes
2016-Sep-30 10:37 124 5 gusting 7 17.8
2016-Sep-30 09:37 118 4 gusting 7 18.3
2016-Sep-30 08:37 149 5 gusting 8 18.3
2016-Sep-30 07:37 188 4 gusting 10 18.3
2016-Sep-30 06:37 163 7 gusting 10 19.4
2016-Sep-30 05:37 188 6 gusting 10 19.4
2016-Sep-30 04:37 307 5 gusting 14 20.0
2016-Sep-30 03:37 350 8 gusting 19 21.7
2016-Sep-30 02:37 343 10 gusting 27 23.9
2016-Sep-30 01:37 344 15 gusting 28 25.6
2016-Sep-30 00:37 351 16 gusting 28 26.1
2016-Sep-29 23:37 357 14 gusting 24 26.7
2016-Sep-29 22:37 351 15 gusting 25 26.7
2016-Sep-29 21:37 359 13 gusting 24 27.8
2016-Sep-29 20:37 300 2 gusting 12 26.7
2016-Sep-29 19:37 289 5 gusting 10 24.4
2016-Sep-29 18:37 320 4 gusting 6 23.9
2016-Sep-29 17:37 137 3 gusting 8 21.1
2016-Sep-29 16:37 158 4 gusting 11 16.7
2016-Sep-29 15:37 124 6 gusting 10 16.7
2016-Sep-29 14:37 128 6 gusting 7 16.7
2016-Sep-29 13:37 119 6 gusting 7 17.2
2016-Sep-29 12:37 156 6 gusting 8 17.8
2016-Sep-29 11:37 174 3 gusting 5 16.7
2016-Sep-29 10:37 129 3 gusting 6 17.2
2016-Sep-29 09:37 159 4 gusting 6 17.8
2016-Sep-29 08:37 119 3 gusting 4 18.3
2016-Sep-29 07:37 159 5 gusting 8 18.3
2016-Sep-29 06:37 177 6 gusting 8 19.4
2016-Sep-29 05:37 193 5 gusting 8 20.0
2016-Sep-29 04:37 181 3 gusting 17 20.6
2016-Sep-29 03:37 351 9 gusting 18 20.6
2016-Sep-29 02:37 001 13 gusting 20 22.2
2016-Sep-29 01:37 24.4
2016-Sep-29 00:37 358 9 gusting 22 26.7
2016-Sep-28 23:37 014 12 gusting 20 27.2
2016-Sep-28 22:37 353 9 gusting 19 26.7
2016-Sep-28 21:37 356 11 gusting 19 26.1
2016-Sep-28 20:37 356 11 gusting 18 26.1
2016-Sep-28 19:37 326 3 gusting 7 24.4
2016-Sep-28 18:37 322 3 gusting 6 22.8
2016-Sep-28 17:37 177 2 gusting 9 20.0
2016-Sep-28 16:37 131 6 gusting 9 17.2
2016-Sep-28 15:37 141 5 gusting 7 16.1
2016-Sep-28 14:37 133 4 gusting 6 16.1
2016-Sep-28 13:37 134 5 gusting 6 16.7
2016-Sep-28 12:37 170 3 gusting 5 17.2
2016-Sep-28 11:37 150 2 gusting 4 17.2